Time;durP1;ratioP1;P1;durP2;ratioP2;P2;SDS_P1;SDS_P2;PMS_P1;PMS_P2;Temp;Humidity;BMP_temperature;BMP_pressure;BME280_temperature;BME280_humidity;BME280_pressure;Samples;Min_cycle;Max_cycle;Signal;HPM_P1;HPM_P2
2024/01/15 00:01:29;;;;;;;6.87;3.00;;;;;;;-1.88;100.00;99448.38;4964965;28;20245;-69
2024/01/15 00:03:56;;;;;;;5.33;2.73;;;;;;;-1.87;100.00;99439.78;4970522;28;20491;-69
2024/01/15 00:06:22;;;;;;;9.30;2.87;;;;;;;-1.81;100.00;99446.16;4969205;28;20713;-71
2024/01/15 00:08:49;;;;;;;3.10;1.60;;;;;;;-1.72;100.00;99435.28;4970883;28;20204;-70
2024/01/15 00:11:15;;;;;;;4.27;2.70;;;;;;;-1.74;100.00;99440.41;4964931;28;20221;-67
2024/01/15 00:13:42;;;;;;;5.93;2.67;;;;;;;-1.80;100.00;99431.47;4969348;28;20197;-68
2024/01/15 00:16:08;;;;;;;18.47;7.27;;;;;;;-1.91;100.00;99410.22;4967963;28;20682;-68
2024/01/15 00:18:34;;;;;;;5.30;2.23;;;;;;;-1.92;100.00;99411.94;4967066;28;20220;-70
2024/01/15 00:21:01;;;;;;;20.03;6.67;;;;;;;-1.86;100.00;99413.91;4968087;28;20291;-70
2024/01/15 00:23:27;;;;;;;19.43;6.67;;;;;;;-1.85;100.00;99417.41;4964491;28;20208;-68
2024/01/15 00:25:54;;;;;;;7.87;2.63;;;;;;;-1.85;100.00;99422.59;4968882;28;20210;-69
2024/01/15 00:28:20;;;;;;;11.60;3.17;;;;;;;-1.85;100.00;99422.59;4966443;28;20288;-72
2024/01/15 00:30:47;;;;;;;17.93;6.87;;;;;;;-1.82;100.00;99410.63;4968512;28;20733;-72
2024/01/15 00:33:14;;;;;;;17.90;7.17;;;;;;;-1.81;100.00;99404.63;4966433;28;20270;-69
2024/01/15 00:35:41;;;;;;;9.10;3.10;;;;;;;-1.78;100.00;99401.28;4969434;28;20224;-71
2024/01/15 00:38:07;;;;;;;9.87;3.10;;;;;;;-1.75;100.00;99394.53;4967431;28;20263;-71
2024/01/15 00:40:34;;;;;;;9.73;3.20;;;;;;;-1.71;100.00;99399.03;4965183;28;20233;-70
2024/01/15 00:43:02;;;;;;;10.20;3.27;;;;;;;-1.67;100.00;99393.16;4967447;28;20559;-72
2024/01/15 00:45:28;;;;;;;6.23;3.47;;;;;;;-1.58;100.00;99398.78;4967835;28;20201;-67
2024/01/15 00:47:56;;;;;;;8.70;2.90;;;;;;;-1.63;100.00;99394.19;4965858;28;20208;-68
2024/01/15 00:50:25;;;;;;;9.50;3.07;;;;;;;-1.69;100.00;99401.69;4967765;28;20229;-67
2024/01/15 00:52:51;;;;;;;6.33;3.23;;;;;;;-1.64;100.00;99389.81;4958085;28;20212;-70
2024/01/15 00:55:18;;;;;;;7.53;3.00;;;;;;;-1.64;100.00;99392.41;4967030;28;20201;-69
2024/01/15 00:57:44;;;;;;;10.83;3.17;;;;;;;-1.66;100.00;99384.56;4962698;28;20208;-70
2024/01/15 01:00:11;;;;;;;4.77;2.50;;;;;;;-1.70;100.00;99373.97;4963924;28;20221;-69
2024/01/15 01:02:38;;;;;;;7.63;2.73;;;;;;;-1.69;100.00;99370.56;4964676;28;20206;-71
2024/01/15 01:05:04;;;;;;;10.33;3.13;;;;;;;-1.76;100.00;99373.69;4969562;28;20301;-69
2024/01/15 01:07:31;;;;;;;8.13;3.33;;;;;;;-1.76;100.00;99355.53;4965609;28;20233;-69
2024/01/15 01:09:57;;;;;;;5.33;2.50;;;;;;;-1.68;100.00;99370.63;4959980;28;22078;-67
2024/01/15 01:12:24;;;;;;;1.40;1.30;;;;;;;-1.64;100.00;99361.25;4961343;28;20201;-67
2024/01/15 01:14:50;;;;;;;5.43;3.10;;;;;;;-1.65;100.00;99367.28;4962014;28;20198;-70
2024/01/15 01:17:16;;;;;;;19.97;7.60;;;;;;;-1.72;100.00;99355.72;4965992;28;20296;-71
2024/01/15 01:19:43;;;;;;;7.53;2.60;;;;;;;-1.70;100.00;99363.59;4964366;28;20245;-69
2024/01/15 01:22:09;;;;;;;4.70;2.10;;;;;;;-1.72;100.00;99357.44;4961285;28;20249;-70
2024/01/15 01:24:36;;;;;;;6.60;2.80;;;;;;;-1.69;100.00;99363.66;4965204;28;20198;-69
2024/01/15 01:27:02;;;;;;;4.57;2.37;;;;;;;-1.68;100.00;99362.84;4962370;28;20216;-68
2024/01/15 01:29:29;;;;;;;9.20;3.13;;;;;;;-1.72;100.00;99352.25;4966060;28;20481;-69
2024/01/15 01:31:56;;;;;;;9.20;2.87;;;;;;;-1.70;100.00;99345.41;4962586;28;20232;-71
2024/01/15 01:34:23;;;;;;;8.50;3.17;;;;;;;-1.74;100.00;99344.41;4965153;28;20252;-71
2024/01/15 01:36:49;;;;;;;4.23;2.23;;;;;;;-1.74;100.00;99339.22;4963733;28;20209;-72
2024/01/15 01:39:16;;;;;;;6.10;2.07;;;;;;;-1.70;100.00;99338.53;4967329;28;20312;-70
2024/01/15 01:41:42;;;;;;;4.33;2.60;;;;;;;-1.72;100.00;99341.88;4962590;28;20226;-69
2024/01/15 01:44:08;;;;;;;16.87;6.43;;;;;;;-1.68;100.00;99347.25;4964708;28;20592;-69
2024/01/15 01:46:40;;;;;;;20.70;7.00;;;;;;;-1.72;100.00;99344.47;4966483;28;20206;-69
2024/01/15 01:49:07;;;;;;;19.90;6.90;;;;;;;-1.72;100.00;99363.53;4966692;28;20206;-72
2024/01/15 01:51:35;;;;;;;15.07;6.27;;;;;;;-1.76;100.00;99364.22;4925200;28;1054318;-69
2024/01/15 01:54:02;;;;;;;3.53;1.83;;;;;;;-1.71;100.00;99365.28;4963707;28;20757;-68
2024/01/15 01:56:30;;;;;;;16.63;6.67;;;;;;;-1.73;100.00;99360.84;4967834;28;20684;-69
2024/01/15 01:58:56;;;;;;;9.60;3.17;;;;;;;-1.78;100.00;99367.56;4959941;28;20236;-69
2024/01/15 02:01:23;;;;;;;3.90;2.27;;;;;;;-1.71;100.00;99373.09;4961932;28;20217;-71
2024/01/15 02:03:49;;;;;;;8.53;2.83;;;;;;;-1.71;100.00;99383.47;4962842;28;20457;-68
2024/01/15 02:06:16;;;;;;;7.43;2.77;;;;;;;-1.70;100.00;99379.16;4965338;28;20249;-69
2024/01/15 02:08:43;;;;;;;17.87;6.67;;;;;;;-1.71;100.00;99370.50;4965208;28;20202;-71
2024/01/15 02:11:10;;;;;;;17.73;7.30;;;;;;;-1.68;100.00;99364.53;4963737;28;20310;-69
2024/01/15 02:13:39;;;;;;;8.00;2.17;;;;;;;-1.66;100.00;99360.31;4962675;28;20296;-69
2024/01/15 02:16:05;;;;;;;5.77;3.27;;;;;;;-1.63;100.00;99353.53;4963605;28;20713;-71
2024/01/15 02:18:42;;;;;;;11.37;2.67;;;;;;;-1.59;100.00;99352.00;4960994;28;20225;-70
2024/01/15 02:21:10;;;;;;;4.27;2.53;;;;;;;-1.55;100.00;99346.13;4964341;28;20660;-69
2024/01/15 02:23:37;;;;;;;15.60;6.57;;;;;;;-1.58;100.00;99341.69;4963853;28;20201;-69
2024/01/15 02:26:04;;;;;;;6.33;1.80;;;;;;;-1.55;100.00;99343.53;4962407;28;20216;-71
2024/01/15 02:28:32;;;;;;;4.73;2.50;;;;;;;-1.50;100.00;99335.94;4970189;28;20204;-69
2024/01/15 02:30:59;;;;;;;3.10;1.90;;;;;;;-1.46;100.00;99333.53;4966891;28;20229;-69
2024/01/15 02:33:26;;;;;;;7.57;2.60;;;;;;;-1.49;100.00;99325.63;4969177;28;20238;-70
2024/01/15 02:35:52;;;;;;;7.43;2.77;;;;;;;-1.46;100.00;99330.06;4971138;28;20205;-72
2024/01/15 02:38:21;;;;;;;17.50;7.07;;;;;;;-1.46;100.00;99328.34;4968569;28;20201;-70
2024/01/15 02:40:47;;;;;;;6.10;2.97;;;;;;;-1.48;100.00;99334.28;4969594;28;20725;-69
2024/01/15 02:43:14;;;;;;;5.50;2.83;;;;;;;-1.51;100.00;99328.97;4969298;28;20198;-71
2024/01/15 02:45:40;;;;;;;7.93;3.93;;;;;;;-1.45;100.00;99329.22;4965737;28;20621;-69
2024/01/15 02:48:07;;;;;;;9.27;2.73;;;;;;;-1.44;100.00;99326.69;4969231;28;20554;-69
2024/01/15 02:50:33;;;;;;;5.00;2.27;;;;;;;-1.40;100.00;99330.31;4965895;28;20689;-70
2024/01/15 02:53:00;;;;;;;7.53;3.17;;;;;;;-1.41;100.00;99332.03;4967631;28;20213;-69
2024/01/15 02:55:29;;;;;;;14.17;6.27;;;;;;;-1.39;100.00;99319.09;4967605;28;20206;-70
2024/01/15 02:57:55;;;;;;;4.23;1.57;;;;;;;-1.42;100.00;99318.97;4967983;28;20673;-70
2024/01/15 03:00:22;;;;;;;4.93;2.67;;;;;;;-1.44;100.00;99324.09;4967252;28;20225;-70
2024/01/15 03:02:50;;;;;;;7.03;3.07;;;;;;;-1.46;100.00;99317.97;4961950;28;20236;-72
2024/01/15 03:05:17;;;;;;;5.47;2.83;;;;;;;-1.48;100.00;99308.34;4967857;28;20197;-69
2024/01/15 03:07:43;;;;;;;17.53;6.73;;;;;;;-1.52;100.00;99325.50;4969746;28;20202;-69
2024/01/15 03:10:10;;;;;;;4.57;2.67;;;;;;;-1.53;100.00;99328.03;4968158;28;20217;-68
2024/01/15 03:12:36;;;;;;;6.33;2.47;;;;;;;-1.54;100.00;99332.31;4965173;28;20202;-69
2024/01/15 03:15:03;;;;;;;15.93;5.83;;;;;;;-1.58;100.00;99328.72;4967271;28;20241;-69
2024/01/15 03:17:30;;;;;;;4.17;2.60;;;;;;;-1.54;100.00;99324.53;4965850;28;20205;-69
2024/01/15 03:19:56;;;;;;;4.50;2.10;;;;;;;-1.54;100.00;99334.03;4969883;28;20220;-69
2024/01/15 03:22:23;;;;;;;3.10;2.40;;;;;;;-1.66;100.00;99318.78;4971876;28;20236;-69
2024/01/15 03:24:49;;;;;;;7.20;2.83;;;;;;;-1.58;100.00;99331.31;4970398;28;20758;-71
2024/01/15 03:27:16;;;;;;;9.43;2.30;;;;;;;-1.53;100.00;99338.41;4964428;28;20230;-69
2024/01/15 03:29:42;;;;;;;3.70;1.87;;;;;;;-1.53;100.00;99333.22;4965684;28;20268;-68
2024/01/15 03:32:09;;;;;;;5.30;2.47;;;;;;;-1.54;100.00;99315.84;4968033;28;20251;-71
2024/01/15 03:34:35;;;;;;;6.87;2.67;;;;;;;-1.52;100.00;99320.28;4966814;28;20670;-70
2024/01/15 03:37:02;;;;;;;3.30;1.93;;;;;;;-1.48;100.00;99326.50;4964565;28;20205;-70
2024/01/15 03:39:28;;;;;;;2.93;1.80;;;;;;;-1.48;100.00;99319.59;4968844;28;20221;-68
2024/01/15 03:41:55;;;;;;;3.57;2.80;;;;;;;-1.49;100.00;99316.94;4965878;28;20315;-71
2024/01/15 03:44:21;;;;;;;11.10;2.20;;;;;;;-1.43;100.00;99325.00;4965554;28;20294;-69
2024/01/15 03:46:48;;;;;;;7.63;2.60;;;;;;;-1.49;100.00;99320.44;4965312;28;20316;-70
2024/01/15 03:49:14;;;;;;;11.50;3.20;;;;;;;-1.42;100.00;99322.47;4966201;28;20198;-69
2024/01/15 03:51:41;;;;;;;4.50;2.00;;;;;;;-1.41;100.00;99319.03;4968974;28;20329;-69
2024/01/15 03:54:07;;;;;;;14.63;5.63;;;;;;;-1.46;100.00;99312.78;4966242;28;20578;-69
2024/01/15 03:56:35;;;;;;;5.90;1.63;;;;;;;-1.44;100.00;99313.72;4965838;28;20205;-69
2024/01/15 03:59:01;;;;;;;7.40;2.43;;;;;;;-1.41;100.00;99315.56;4969440;28;20725;-72
2024/01/15 04:01:28;;;;;;;10.00;1.90;;;;;;;-1.46;100.00;99304.09;4967474;28;20228;-69
2024/01/15 04:03:54;;;;;;;4.37;1.73;;;;;;;-1.39;100.00;99317.41;4964426;28;20215;-70
2024/01/15 04:06:21;;;;;;;4.83;1.43;;;;;;;-1.40;100.00;99323.41;4968544;28;20681;-69
2024/01/15 04:08:47;;;;;;;5.17;2.27;;;;;;;-1.45;100.00;99334.44;4965489;28;20244;-69
2024/01/15 04:11:14;;;;;;;3.73;1.97;;;;;;;-1.47;100.00;99323.09;4970591;28;20232;-73
2024/01/15 04:13:40;;;;;;;6.13;2.73;;;;;;;-1.50;100.00;99322.97;4963550;28;20708;-69
2024/01/15 04:16:08;;;;;;;4.83;2.20;;;;;;;-1.58;100.00;99313.13;4969067;28;20201;-72
2024/01/15 04:18:34;;;;;;;13.43;5.53;;;;;;;-1.56;100.00;99318.38;4967335;28;20210;-71
2024/01/15 04:21:04;;;;;;;5.50;2.53;;;;;;;-1.52;100.00;99324.59;4969327;28;20280;-69
2024/01/15 04:23:31;;;;;;;3.23;2.03;;;;;;;-1.47;100.00;99317.91;4967091;28;20197;-73
2024/01/15 04:25:57;;;;;;;7.47;3.17;;;;;;;-1.51;100.00;99313.41;4969236;28;20202;-70
2024/01/15 04:28:23;;;;;;;2.97;2.10;;;;;;;-1.45;100.00;99309.34;4961556;28;20214;-70
2024/01/15 04:30:50;;;;;;;15.87;6.27;;;;;;;-1.46;100.00;99315.38;4967586;28;20225;-68
2024/01/15 04:33:16;;;;;;;16.73;6.20;;;;;;;-1.45;100.00;99318.84;4966397;28;20417;-71
2024/01/15 04:35:43;;;;;;;5.67;2.30;;;;;;;-1.50;100.00;99310.88;4967697;28;20741;-71
2024/01/15 04:38:09;;;;;;;6.73;2.80;;;;;;;-1.54;100.00;99306.38;4966718;28;20564;-71
2024/01/15 04:40:35;;;;;;;14.33;5.90;;;;;;;-1.59;100.00;99306.16;4965294;28;20228;-71
2024/01/15 04:43:02;;;;;;;14.70;6.10;;;;;;;-1.63;100.00;99305.94;4971304;28;20304;-69
2024/01/15 04:45:28;;;;;;;10.37;2.63;;;;;;;-1.65;100.00;99308.47;4968313;28;20197;-72
2024/01/15 04:47:58;;;;;;;15.40;6.13;;;;;;;-1.67;100.00;99304.03;4966872;28;20208;-69
2024/01/15 04:50:25;;;;;;;16.87;6.53;;;;;;;-1.61;100.00;99309.47;4963174;28;20226;-70
2024/01/15 04:52:51;;;;;;;6.27;2.70;;;;;;;-1.66;100.00;99295.41;4963887;28;20201;-70
2024/01/15 04:55:18;;;;;;;16.73;6.20;;;;;;;-1.62;100.00;99299.91;4966400;28;20729;-69
2024/01/15 04:57:44;;;;;;;4.93;1.97;;;;;;;-1.58;100.00;99292.38;4968072;28;20213;-69
2024/01/15 05:00:12;;;;;;;5.57;2.90;;;;;;;-1.54;100.00;99292.50;4964572;28;20221;-70
2024/01/15 05:02:38;;;;;;;6.07;2.20;;;;;;;-1.54;100.00;99289.91;4966027;28;20260;-73
2024/01/15 05:05:05;;;;;;;9.50;3.87;;;;;;;-1.52;100.00;99283.94;4964165;28;20271;-72
2024/01/15 05:07:31;;;;;;;7.20;2.83;;;;;;;-1.57;100.00;99272.50;4968367;28;20205;-72
2024/01/15 05:09:58;;;;;;;4.30;2.10;;;;;;;-1.44;100.00;99284.28;4967476;28;20205;-69
2024/01/15 05:12:24;;;;;;;7.80;2.97;;;;;;;-1.45;100.00;99279.91;4965436;28;20205;-70
2024/01/15 05:14:51;;;;;;;8.63;3.07;;;;;;;-1.55;100.00;99281.22;4965548;28;20240;-73
2024/01/15 05:17:17;;;;;;;9.93;2.90;;;;;;;-1.50;100.00;99279.72;4966591;28;20634;-73
2024/01/15 05:19:44;;;;;;;3.13;2.20;;;;;;;-1.46;100.00;99292.00;4966699;28;20224;-70
2024/01/15 05:22:10;;;;;;;8.60;2.77;;;;;;;-1.47;100.00;99286.75;4968251;28;20232;-70
2024/01/15 05:24:36;;;;;;;8.03;3.30;;;;;;;-1.38;100.00;99297.50;4964044;28;20208;-69
2024/01/15 05:27:03;;;;;;;8.37;2.83;;;;;;;-1.37;100.00;99284.59;4966772;28;20685;-68
2024/01/15 05:29:30;;;;;;;5.30;3.03;;;;;;;-1.36;100.00;99275.97;4963477;28;20578;-70
2024/01/15 05:31:56;;;;;;;6.20;2.47;;;;;;;-1.33;100.00;99286.50;4962736;28;20823;-73
2024/01/15 05:34:27;;;;;;;7.73;3.80;;;;;;;-1.39;100.00;99275.84;4966148;28;20657;-70
2024/01/15 05:36:53;;;;;;;8.47;2.33;;;;;;;-1.38;100.00;99279.34;4963292;28;20286;-72
2024/01/15 05:39:20;;;;;;;20.43;6.70;;;;;;;-1.46;100.00;99275.53;4967195;28;20249;-68
2024/01/15 05:41:49;;;;;;;6.23;3.00;;;;;;;-1.48;100.00;99272.88;4967392;28;20249;-70
2024/01/15 05:44:18;;;;;;;6.53;3.07;;;;;;;-1.49;100.00;99278.88;4968499;28;20205;-71
2024/01/15 05:46:44;;;;;;;4.50;2.87;;;;;;;-1.58;100.00;99262.94;4965782;28;20225;-70
2024/01/15 05:49:11;;;;;;;7.70;3.47;;;;;;;-1.59;100.00;99271.53;4969990;28;20210;-69
2024/01/15 05:51:37;;;;;;;9.43;3.30;;;;;;;-1.58;100.00;99271.59;4964751;28;20320;-70
2024/01/15 05:54:04;;;;;;;7.27;2.93;;;;;;;-1.62;100.00;99258.41;4968990;28;20266;-71
2024/01/15 05:56:30;;;;;;;10.90;4.53;;;;;;;-1.50;100.00;99266.72;4967980;28;20240;-70
2024/01/15 05:58:57;;;;;;;7.90;3.17;;;;;;;-1.47;100.00;99272.06;4967239;28;20216;-71
2024/01/15 06:01:23;;;;;;;10.40;3.63;;;;;;;-1.47;100.00;99265.97;4970505;28;20232;-72
2024/01/15 06:03:50;;;;;;;11.57;3.50;;;;;;;-1.43;100.00;99270.47;4972542;28;20688;-73
2024/01/15 06:06:16;;;;;;;8.17;3.17;;;;;;;-1.47;100.00;99240.00;4973941;28;20576;-70
2024/01/15 06:08:43;;;;;;;16.20;4.83;;;;;;;-1.41;100.00;99261.03;4973517;28;20219;-70
2024/01/15 06:11:09;;;;;;;8.40;2.80;;;;;;;-1.38;100.00;99254.25;4970299;28;20228;-70
2024/01/15 06:13:36;;;;;;;9.47;3.30;;;;;;;-1.40;100.00;99247.22;4970965;28;20206;-70
2024/01/15 06:16:02;;;;;;;9.63;3.03;;;;;;;-1.33;100.00;99244.94;4972436;28;20202;-73
2024/01/15 06:18:32;;;;;;;7.90;2.73;;;;;;;-1.31;100.00;99251.09;4970598;28;20205;-71
2024/01/15 06:20:59;;;;;;;19.53;6.87;;;;;;;-1.31;100.00;99248.50;4972774;28;20229;-71
2024/01/15 06:23:25;;;;;;;9.67;2.77;;;;;;;-1.29;100.00;99257.22;4969356;28;20265;-68
2024/01/15 06:25:52;;;;;;;3.80;2.87;;;;;;;-1.31;100.00;99258.88;4972716;28;20604;-70
2024/01/15 06:28:18;;;;;;;15.10;6.23;;;;;;;-1.35;100.00;99256.09;4972704;28;20229;-69
2024/01/15 06:30:44;;;;;;;10.33;3.30;;;;;;;-1.32;100.00;99258.81;4972573;28;20221;-70
2024/01/15 06:33:11;;;;;;;6.43;2.57;;;;;;;-1.29;100.00;99261.53;4967797;28;20651;-70
2024/01/15 06:35:37;;;;;;;4.60;1.33;;;;;;;-1.23;100.00;99255.72;4970406;28;20307;-71
2024/01/15 06:38:04;;;;;;;6.70;2.67;;;;;;;-1.34;100.00;99248.38;4968335;28;20216;-68
2024/01/15 06:40:30;;;;;;;8.53;2.60;;;;;;;-1.26;100.00;99265.16;4962150;28;20222;-69
2024/01/15 06:42:57;;;;;;;8.10;2.73;;;;;;;-1.29;100.00;99265.03;4969265;28;20205;-68
2024/01/15 06:45:23;;;;;;;7.10;3.00;;;;;;;-1.31;100.00;99265.78;4971155;28;20637;-69
2024/01/15 06:47:50;;;;;;;11.77;3.20;;;;;;;-1.31;100.00;99266.66;4972127;28;20296;-67
2024/01/15 06:50:16;;;;;;;7.13;3.13;;;;;;;-1.27;100.00;99265.09;4972805;28;20656;-71
2024/01/15 06:52:42;;;;;;;8.77;3.60;;;;;;;-1.23;100.00;99260.91;4971870;28;20252;-69
2024/01/15 06:55:09;;;;;;;5.90;3.40;;;;;;;-1.27;100.00;99258.19;4959054;28;20224;-68
2024/01/15 06:57:35;;;;;;;12.37;3.70;;;;;;;-1.16;100.00;99262.97;4968337;28;20215;-69
2024/01/15 07:00:07;;;;;;;8.00;3.50;;;;;;;-1.19;100.00;99255.94;4960388;28;20237;-68
2024/01/15 07:02:33;;;;;;;9.00;3.53;;;;;;;-1.21;100.00;99248.88;4972209;28;20202;-68
2024/01/15 07:05:00;;;;;;;11.70;2.87;;;;;;;-1.20;100.00;99258.44;4967012;28;20210;-69
2024/01/15 07:07:29;;;;;;;16.77;3.73;;;;;;;-1.23;100.00;99254.00;4971462;28;20205;-68
2024/01/15 07:09:56;;;;;;;6.77;3.33;;;;;;;-1.14;100.00;99256.13;4963845;28;20230;-68
2024/01/15 07:12:23;;;;;;;9.17;3.17;;;;;;;-1.11;100.00;99257.13;4974700;28;20237;-68
2024/01/15 07:14:50;;;;;;;10.07;3.50;;;;;;;-1.12;100.00;99247.56;4971358;28;20210;-68
2024/01/15 07:17:17;;;;;;;10.20;3.80;;;;;;;-1.07;100.00;99248.63;4968578;28;20206;-68
2024/01/15 07:19:46;;;;;;;8.40;3.00;;;;;;;-0.98;100.00;99245.50;4967408;28;20763;-69
2024/01/15 07:22:13;;;;;;;11.30;3.87;;;;;;;-0.90;100.00;99248.41;4971399;28;20265;-68
2024/01/15 07:24:39;;;;;;;10.63;4.40;;;;;;;-1.05;100.00;99235.69;4972362;28;20202;-68
2024/01/15 07:27:06;;;;;;;10.17;4.30;;;;;;;-0.98;100.00;99250.69;4972730;28;20442;-69
2024/01/15 07:29:37;;;;;;;11.23;3.83;;;;;;;-0.93;100.00;99248.28;4964740;28;20207;-66
2024/01/15 07:32:04;;;;;;;11.10;4.10;;;;;;;-0.95;100.00;99236.13;4966735;28;20304;-64
2024/01/15 07:34:31;;;;;;;8.30;3.80;;;;;;;-0.98;100.00;99243.78;4970956;28;20291;-66
2024/01/15 07:36:58;;;;;;;11.47;3.87;;;;;;;-0.98;100.00;99238.59;4971612;28;20203;-66
2024/01/15 07:39:25;;;;;;;8.17;3.20;;;;;;;-0.94;100.00;99242.22;4969743;28;20694;-68
2024/01/15 07:41:51;;;;;;;8.83;3.60;;;;;;;-0.98;100.00;99246.41;4968101;28;20876;-70
2024/01/15 07:44:18;;;;;;;12.23;4.43;;;;;;;-0.96;100.00;99249.06;4970226;28;20298;-68
2024/01/15 07:46:45;;;;;;;10.13;3.47;;;;;;;-0.96;100.00;99249.06;4967208;28;20747;-69
2024/01/15 07:49:14;;;;;;;11.90;4.07;;;;;;;-0.99;100.00;99244.63;4971822;28;20258;-69
2024/01/15 07:51:43;;;;;;;9.07;3.57;;;;;;;-0.84;100.00;99244.34;4971151;28;20221;-69
2024/01/15 07:54:11;;;;;;;9.70;4.07;;;;;;;-0.76;100.00;99248.16;4968538;28;20300;-71
2024/01/15 07:56:57;;;;;;;11.73;4.67;;;;;;;-0.71;100.00;99240.53;4964583;28;20236;-70
2024/01/15 07:59:24;;;;;;;9.73;3.60;;;;;;;-0.59;100.00;99250.50;4971078;28;20618;-70
2024/01/15 08:01:52;;;;;;;17.27;5.23;;;;;;;-0.43;100.00;99245.06;4965233;28;20228;-71
2024/01/15 08:04:19;;;;;;;9.97;3.70;;;;;;;-0.37;100.00;99243.59;4958197;28;20601;-69
2024/01/15 08:06:46;;;;;;;14.77;4.73;;;;;;;-0.27;100.00;99243.94;4968592;28;20654;-69
2024/01/15 08:09:13;;;;;;;11.20;4.30;;;;;;;-0.13;100.00;99238.41;4970745;28;20227;-70
2024/01/15 08:11:43;;;;;;;16.33;4.87;;;;;;;0.02;100.00;99240.72;4964685;28;20224;-68
2024/01/15 08:14:11;;;;;;;14.03;5.17;;;;;;;0.05;100.00;99240.81;4969281;28;20213;-70
2024/01/15 08:16:37;;;;;;;12.83;5.73;;;;;;;0.13;100.00;99236.78;4970602;28;20204;-69
2024/01/15 08:19:05;;;;;;;15.63;4.97;;;;;;;0.15;100.00;99242.91;4971333;28;20215;-70
2024/01/15 08:21:32;;;;;;;16.63;5.20;;;;;;;0.11;100.00;99240.16;4967269;28;20697;-71
2024/01/15 08:24:00;;;;;;;16.97;5.33;;;;;;;0.06;100.00;99236.50;4967186;28;20200;-71
2024/01/15 08:26:26;;;;;;;10.63;4.57;;;;;;;0.11;100.00;99227.13;4966718;28;20294;-70
2024/01/15 08:28:52;;;;;;;12.87;4.87;;;;;;;0.16;100.00;99236.00;4968841;28;20211;-70
2024/01/15 08:31:19;;;;;;;15.07;5.03;;;;;;;0.31;100.00;99236.53;4970263;28;20552;-68
2024/01/15 08:33:46;;;;;;;11.83;4.80;;;;;;;0.20;100.00;99233.56;4968972;28;20517;-70
2024/01/15 08:36:12;;;;;;;12.80;4.77;;;;;;;0.18;100.00;99227.41;4964205;28;20228;-70
2024/01/15 08:38:39;;;;;;;14.27;5.03;;;;;;;0.25;100.00;99239.81;4970136;28;20205;-71
2024/01/15 08:41:05;;;;;;;14.27;4.70;;;;;;;0.26;100.00;99228.56;4969656;28;20719;-71
2024/01/15 08:43:32;;;;;;;15.10;5.97;;;;;;;0.17;100.00;99209.13;4968344;28;20319;-71
2024/01/15 08:45:59;;;;;;;11.90;5.40;;;;;;;0.31;100.00;99228.72;4969058;28;20217;-70
2024/01/15 08:48:27;;;;;;;10.30;5.13;;;;;;;0.31;100.00;99226.13;4967493;28;20275;-70
2024/01/15 08:50:54;;;;;;;12.33;5.20;;;;;;;0.24;100.00;99238.03;4974133;28;20228;-70
2024/01/15 08:53:21;;;;;;;17.30;4.83;;;;;;;0.19;100.00;99243.91;4966209;28;20595;-70
2024/01/15 08:55:47;;;;;;;12.13;4.47;;;;;;;0.12;100.00;99234.13;4964877;28;20230;-70
2024/01/15 08:58:14;;;;;;;10.47;4.70;;;;;;;0.15;100.00;99239.44;4970771;28;20219;-71
2024/01/15 09:00:40;;;;;;;13.87;4.90;;;;;;;0.15;100.00;99249.84;4967931;28;20236;-69
2024/01/15 09:03:08;;;;;;;11.17;4.53;;;;;;;0.17;100.00;99259.47;4967545;28;20676;-70
2024/01/15 09:05:35;;;;;;;13.23;5.17;;;;;;;0.09;100.00;99250.50;4961680;28;20258;-70
2024/01/15 09:08:01;;;;;;;9.30;4.60;;;;;;;0.02;100.00;99260.66;4966679;28;20213;-71
2024/01/15 09:10:28;;;;;;;10.43;3.93;;;;;;;-0.02;100.00;99249.22;4967410;28;20235;-69
2024/01/15 09:12:54;;;;;;;12.77;4.70;;;;;;;-0.02;100.00;99254.41;4965287;28;20570;-70
2024/01/15 09:15:21;;;;;;;14.20;4.43;;;;;;;0.03;100.00;99254.63;4966229;28;20215;-69
2024/01/15 09:17:47;;;;;;;12.43;4.60;;;;;;;0.11;100.00;99266.19;4964162;28;20293;-69
2024/01/15 09:20:15;;;;;;;5.73;3.97;;;;;;;0.23;100.00;99257.09;4973451;28;20202;-69
2024/01/15 09:22:42;;;;;;;13.33;4.83;;;;;;;0.41;100.00;99261.19;4969948;28;20207;-69
2024/01/15 09:25:11;;;;;;;12.60;4.07;;;;;;;0.58;100.00;99258.34;4956094;28;20272;-70
2024/01/15 09:27:37;;;;;;;11.03;4.37;;;;;;;0.74;100.00;99251.91;4970229;28;20212;-70
2024/01/15 09:30:05;;;;;;;10.43;4.37;;;;;;;0.98;100.00;99238.81;4970705;28;20476;-70
2024/01/15 09:32:32;;;;;;;10.77;4.27;;;;;;;1.21;100.00;99237.84;4969294;28;20608;-70
2024/01/15 09:34:59;;;;;;;14.30;5.03;;;;;;;1.30;100.00;99225.94;4965691;28;20747;-69
2024/01/15 09:37:25;;;;;;;16.07;5.20;;;;;;;1.41;100.00;99227.16;4965290;28;20205;-68
2024/01/15 09:40:14;;;;;;;10.97;5.27;;;;;;;1.35;100.00;99224.34;4963177;28;20296;-68
2024/01/15 09:42:42;;;;;;;13.97;5.43;;;;;;;1.32;100.00;99224.25;4969358;28;20209;-69
2024/01/15 09:45:09;;;;;;;15.93;5.50;;;;;;;1.42;100.00;99226.31;4969805;28;20205;-69
2024/01/15 09:47:37;;;;;;;14.07;5.87;;;;;;;1.50;100.00;99228.31;4958790;28;20206;-69
2024/01/15 09:50:08;;;;;;;14.53;5.37;;;;;;;1.62;100.00;99237.38;4969374;28;20206;-68
2024/01/15 09:52:36;;;;;;;11.57;4.77;;;;;;;1.68;100.00;99229.72;4967051;28;20292;-68
2024/01/15 09:55:05;;;;;;;15.50;5.83;;;;;;;1.84;100.00;99230.19;4960393;28;20256;-69
2024/01/15 09:57:32;;;;;;;14.20;5.47;;;;;;;2.05;100.00;99229.06;4964943;28;20232;-70
2024/01/15 10:00:04;;;;;;;15.07;5.33;;;;;;;2.03;100.00;99218.56;4966973;28;20213;-70
2024/01/15 10:02:30;;;;;;;13.23;5.93;;;;;;;2.24;100.00;99218.28;4958518;28;20284;-69
2024/01/15 10:04:57;;;;;;;12.67;4.67;;;;;;;2.30;100.00;99221.03;4964111;28;20663;-70
2024/01/15 10:07:25;;;;;;;12.20;5.07;;;;;;;2.39;100.00;99218.69;4966952;28;20197;-71
2024/01/15 10:09:52;;;;;;;10.90;5.00;;;;;;;2.48;100.00;99212.84;4966065;28;20244;-70
2024/01/15 10:12:20;;;;;;;11.57;5.53;;;;;;;2.68;100.00;99206.38;4961242;28;20299;-72
2024/01/15 10:14:49;;;;;;;12.13;5.17;;;;;;;2.86;100.00;99207.72;4967003;28;20204;-70
2024/01/15 10:17:15;;;;;;;11.70;4.83;;;;;;;2.72;100.00;99212.56;4968658;28;20237;-71
2024/01/15 10:19:42;;;;;;;9.57;4.23;;;;;;;2.60;100.00;99214.88;4969542;28;20221;-72
2024/01/15 10:22:20;;;;;;;11.70;4.90;;;;;;;2.48;100.00;99220.66;4963744;28;20263;-72
2024/01/15 10:24:47;;;;;;;9.37;4.70;;;;;;;2.39;100.00;99217.78;4967540;28;20210;-72
2024/01/15 10:27:15;;;;;;;12.77;5.20;;;;;;;2.17;100.00;99216.34;4968459;28;20208;-73
2024/01/15 10:29:42;;;;;;;11.33;5.50;;;;;;;2.22;100.00;99216.47;4963245;28;20233;-72
2024/01/15 10:32:09;;;;;;;9.13;3.80;;;;;;;2.03;100.00;99217.69;4965052;28;20587;-70
2024/01/15 10:34:40;;;;;;;10.07;4.10;;;;;;;1.88;100.00;99215.50;4969919;28;20240;-71
2024/01/15 10:37:08;;;;;;;11.27;5.33;;;;;;;1.79;100.00;99207.41;4970226;28;21001;-72
2024/01/15 10:39:36;;;;;;;13.80;5.80;;;;;;;1.62;100.00;99204.31;4970228;28;20198;-70
2024/01/15 10:42:03;;;;;;;13.33;4.87;;;;;;;1.53;100.00;99204.03;4960012;28;20241;-70
2024/01/15 10:44:29;;;;;;;9.17;4.90;;;;;;;1.41;100.00;99201.94;4958272;28;20198;-69
2024/01/15 10:46:57;;;;;;;9.43;4.77;;;;;;;1.62;100.00;99191.28;4967343;28;20227;-71
2024/01/15 10:49:26;;;;;;;17.43;5.43;;;;;;;1.70;100.00;99178.44;4963115;28;20201;-71
2024/01/15 10:51:58;;;;;;;10.93;5.57;;;;;;;2.02;100.00;99176.75;4967766;28;20380;-70
2024/01/15 10:54:27;;;;;;;12.10;5.30;;;;;;;2.11;100.00;99182.22;4970977;28;20197;-70
2024/01/15 10:56:56;;;;;;;11.77;4.87;;;;;;;2.24;100.00;99172.97;4972051;28;20682;-71
2024/01/15 10:59:22;;;;;;;15.17;4.73;;;;;;;2.16;100.00;99168.44;4973666;28;20202;-70
2024/01/15 11:01:53;;;;;;;12.77;5.47;;;;;;;1.98;100.00;99160.09;4969171;28;20694;-70
2024/01/15 11:04:21;;;;;;;14.30;5.43;;;;;;;1.68;100.00;99167.97;4959347;28;20197;-70
2024/01/15 11:06:50;;;;;;;13.43;5.63;;;;;;;1.77;100.00;99163.00;4972843;28;20341;-71
2024/01/15 11:09:18;;;;;;;13.50;4.90;;;;;;;1.97;100.00;99153.09;4971563;28;20666;-69
2024/01/15 11:11:49;;;;;;;15.00;6.73;;;;;;;2.35;100.00;99151.50;4971804;28;20221;-71
2024/01/15 11:14:44;;;;;;;11.63;4.90;;;;;;;2.66;100.00;99152.31;4969712;28;20204;-72
2024/01/15 11:17:11;;;;;;;9.97;4.20;;;;;;;2.81;100.00;99150.97;4971198;28;20197;-70
2024/01/15 11:19:41;;;;;;;10.03;4.30;;;;;;;3.04;100.00;99148.88;4970934;28;20269;-71
2024/01/15 11:22:09;;;;;;;9.60;4.50;;;;;;;3.13;100.00;99143.84;4971432;28;20222;-71
2024/01/15 11:24:39;;;;;;;10.40;4.50;;;;;;;2.92;100.00;99142.47;4966550;28;20205;-71